Список аэропортов
Фактическая погода:

24 июня, 23:30
Температура: +30°C (+30.0*)
Ветер: северный 2 м/с
Давление: *761 мм
Без существ. явл.
Время (МСК)Темп. СВетерВлажностьДавлениеОблачностьОсадки
21:00+36С, 3 м/с19%1012 гПаясно
22:00+34СВ, 3 м/с22%1013 гПаясно
23:00+31СВ, 3 м/с31%1014 гПаясно
25 июня
00:00+29СВ, 3 м/с40%1014 гПаясно
01:00+28СВ, 4 м/с40%1015 гПаясно
02:00+26СВ, 4 м/с44%1015 гПаясно
03:00+25СВ, 4 м/с45%1015 гПаясно
04:00+24С, 4 м/с46%1015 гПаясно
05:00+22С, 4 м/с48%1016 гПаясно
06:00+21С, 4 м/с49%1016 гПаясно
07:00+20СВ, 3 м/с53%1016 гПаясно
08:00+19СВ, 3 м/с57%1017 гПаясно
09:00+20СВ, 2 м/с60%1017 гПаясно
10:00+22СВ, 2 м/с56%1017 гПаясно
11:00+24В, 2 м/с57%1016 гПаясно
12:00+26В, 1 м/с52%1016 гПаясно
13:00+28ЮВ, 1 м/с46%1015 гПаясно
14:00+30ЮВ, 1 м/с40%1014 гПаясно
15:00+33Ю, 1 м/с34%1014 гПаясно
16:00+34ЮЗ, 2 м/с31%1013 гПаясно
17:00+35З, 2 м/с27%1012 гПаясно
18:00+36З, 2 м/с25%1012 гПаясно
19:00+36З, 2 м/с23%1012 гПаясно
20:00+36З, 2 м/с22%1012 гПамалооблачно
21:00+36СЗ, 2 м/с23%1012 гПаоблачно
22:00+32ЮВ, 4 м/с38%1013 гПаоблачнодождь
23:00+29ЮВ, 2 м/с44%1014 гПаясно
26 июня
00:00+28С, 1 м/с53%1015 гПаясно
01:00+26ЮВ, 3 м/с67%1016 гПамалооблачносл. дождь
02:00+24ЮВ, 2 м/с74%1016 гПаясно
03:00+23С, 2 м/с83%1016 гПаясно
04:00+22СВ, 2 м/с86%1016 гПаясно
05:00+21СВ, 2 м/с88%1016 гПаясно
06:00+21СВ, 2 м/с91%1016 гПаясно
07:00+20В, 1 м/с90%1016 гПаясно
08:00+19СВ, 2 м/с89%1017 гПаясно
09:00+20СВ, 2 м/с86%1016 гПаясно
10:00+22В, 2 м/с75%1016 гПаясно
11:00+24ЮВ, 2 м/с67%1016 гПаясно
12:00+26ЮВ, 2 м/с59%1016 гПаясно
13:00+28ЮВ, 2 м/с54%1015 гПаясно
14:00+30Ю, 2 м/с48%1014 гПаясно
15:00+32Ю, 2 м/с44%1014 гПаясно
16:00+33Ю, 3 м/с39%1013 гПаясно
17:00+34ЮЗ, 3 м/с35%1012 гПаясно
18:00+30СЗ, 4 м/с53%1012 гПамалооблачно
19:00+32З, 2 м/с42%1012 гПаясно
20:00+33З, 2 м/с40%1012 гПамалооблачно
21:00+27В, 3 м/с68%1014 гПаоблачнодождь